Time,TemperatureF,DewpointF,PressureIn,WindDirection,WindDirectionDegrees,WindSpeedMPH,WindSpeedGustMPH,Humidity,HourlyPrecipIn,Conditions,Clouds,dailyrainin,SolarRadiationWatts/m^2,SoftwareType,DateUTC
2013-08-05 00:02:00,47.0,46.0,-100.00,South,175,0.0,0.0,97,0.00,,,0.00,0.000000,,2013-08-05 05:02:00,
2013-08-05 00:12:00,47.0,46.0,-100.00,South,175,0.0,0.0,97,0.00,,,0.00,0.000000,,2013-08-05 05:12:00,
2013-08-05 00:22:00,47.0,46.0,-100.00,South,175,0.0,0.0,97,0.00,,,0.00,0.000000,,2013-08-05 05:22:00,
2013-08-05 00:32:00,47.0,46.0,-100.00,South,175,0.0,0.0,97,0.00,,,0.00,0.000000,,2013-08-05 05:32:00,
2013-08-05 01:02:00,46.0,46.0,-100.00,South,180,0.0,2.0,99,0.00,,,0.00,0.000000,,2013-08-05 06:02:00,
2013-08-05 01:12:00,46.0,46.0,-100.00,South,180,0.0,2.0,99,0.00,,,0.00,0.000000,,2013-08-05 06:12:00,
2013-08-05 01:22:00,46.0,46.0,-100.00,South,180,0.0,2.0,99,0.00,,,0.00,0.000000,,2013-08-05 06:22:00,
2013-08-05 01:32:00,46.0,46.0,-100.00,South,180,0.0,2.0,99,0.00,,,0.00,0.000000,,2013-08-05 06:32:00,
2013-08-05 02:02:00,46.0,46.0,-100.00,SSE,156,0.0,0.0,99,0.00,,,0.00,0.000000,,2013-08-05 07:02:00,
2013-08-05 02:12:00,46.0,46.0,-100.00,SSE,156,0.0,0.0,99,0.00,,,0.00,0.000000,,2013-08-05 07:12:00,
2013-08-05 02:22:00,46.0,46.0,-100.00,SSE,156,0.0,0.0,99,0.00,,,0.00,0.000000,,2013-08-05 07:22:00,
2013-08-05 02:32:00,46.0,46.0,-100.00,SSE,156,0.0,0.0,99,0.00,,,0.00,0.000000,,2013-08-05 07:32:00,
2013-08-05 03:02:00,50.0,50.0,-100.00,SSW,213,1.0,4.0,100,0.00,,,0.00,0.000000,,2013-08-05 08:02:00,
2013-08-05 03:12:00,50.0,50.0,-100.00,SSW,213,1.0,4.0,100,0.00,,,0.00,0.000000,,2013-08-05 08:12:00,
2013-08-05 03:22:00,50.0,50.0,-100.00,SSW,213,1.0,4.0,100,0.00,,,0.00,0.000000,,2013-08-05 08:22:00,
2013-08-05 03:34:00,50.0,50.0,-100.00,SSW,213,1.0,4.0,100,0.00,,,0.00,0.000000,,2013-08-05 08:34:00,
2013-08-05 03:37:00,50.0,49.0,-100.00,WSW,256,1.0,4.0,97,0.00,,,0.00,0.000000,,2013-08-05 08:37:00,
2013-08-05 04:06:00,50.0,49.0,-100.00,WSW,256,1.0,4.0,97,0.00,,,0.00,0.000000,,2013-08-05 09:06:00,
2013-08-05 04:18:00,50.0,49.0,-100.00,WSW,256,1.0,4.0,97,0.00,,,0.00,0.000000,,2013-08-05 09:18:00,
2013-08-05 04:27:00,50.0,49.0,-100.00,WSW,256,1.0,4.0,97,0.00,,,0.00,0.000000,,2013-08-05 09:27:00,
2013-08-05 05:09:00,52.0,51.0,-100.00,West,268,2.0,5.0,95,0.00,,,0.00,0.000000,,2013-08-05 10:09:00,
2013-08-05 05:15:00,52.0,51.0,-100.00,West,268,2.0,5.0,95,0.00,,,0.00,0.000000,,2013-08-05 10:15:00,
2013-08-05 05:27:00,52.0,51.0,-100.00,West,268,2.0,5.0,95,0.00,,,0.00,0.000000,,2013-08-05 10:27:00,
2013-08-05 05:33:00,52.0,51.0,-100.00,West,268,2.0,5.0,95,0.00,,,0.00,0.000000,,2013-08-05 10:33:00,
2013-08-05 05:37:00,52.0,50.0,-100.00,WSW,239,2.0,6.0,93,0.00,,,0.00,0.000000,,2013-08-05 10:37:00,
2013-08-05 06:09:00,52.0,50.0,-100.00,WSW,239,2.0,6.0,93,0.00,,,0.00,0.000000,,2013-08-05 11:09:00,
2013-08-05 06:14:00,52.0,50.0,-100.00,WSW,239,2.0,6.0,93,0.00,,,0.00,0.000000,,2013-08-05 11:14:00,
2013-08-05 06:27:00,52.0,50.0,-100.00,WSW,239,2.0,6.0,93,0.00,,,0.00,0.000000,,2013-08-05 11:27:00,
2013-08-05 07:07:00,52.0,51.0,-100.00,WSW,237,1.0,4.0,96,0.00,,,-99.99,18.000000,,2013-08-05 12:07:00,
2013-08-05 07:17:00,52.0,51.0,-100.00,WSW,237,1.0,4.0,96,0.00,,,-99.99,18.000000,,2013-08-05 12:17:00,
2013-08-05 07:27:00,52.0,51.0,-100.00,WSW,237,1.0,4.0,96,0.00,,,-99.99,18.000000,,2013-08-05 12:27:00,
2013-08-05 07:33:00,52.0,51.0,-100.00,WSW,237,1.0,4.0,96,0.00,,,-99.99,18.000000,,2013-08-05 12:33:00,
2013-08-05 07:37:00,55.0,52.0,-100.00,SW,228,3.0,6.0,91,0.00,,,0.00,77.000000,,2013-08-05 12:37:00,
2013-08-05 08:02:00,55.0,52.0,-100.00,SW,228,3.0,6.0,91,0.00,,,0.00,77.000000,,2013-08-05 13:02:00,
2013-08-05 08:14:00,55.0,52.0,-100.00,SW,228,3.0,6.0,91,0.00,,,0.00,77.000000,,2013-08-05 13:14:00,
2013-08-05 08:27:00,55.0,52.0,-100.00,SW,228,3.0,6.0,91,0.00,,,0.00,77.000000,,2013-08-05 13:27:00,
2013-08-05 08:37:00,55.0,54.0,-100.00,SW,221,3.0,6.0,95,0.03,,,0.03,76.000000,,2013-08-05 13:37:00,
2013-08-05 09:05:00,55.0,54.0,-100.00,SW,221,3.0,6.0,95,0.03,,,0.03,76.000000,,2013-08-05 14:05:00,
2013-08-05 09:17:00,55.0,54.0,-100.00,SW,221,3.0,6.0,95,0.03,,,0.03,76.000000,,2013-08-05 14:17:00,
2013-08-05 09:27:00,55.0,54.0,-100.00,SW,221,3.0,6.0,95,0.03,,,0.03,76.000000,,2013-08-05 14:27:00,
2013-08-05 09:37:00,55.0,54.0,-100.00,WSW,248,2.0,7.0,98,0.09,,,0.12,58.000000,,2013-08-05 14:37:00,
2013-08-05 10:07:00,55.0,54.0,-100.00,WSW,248,2.0,7.0,98,0.09,,,0.12,58.000000,,2013-08-05 15:07:00,
2013-08-05 10:14:00,55.0,54.0,-100.00,WSW,248,2.0,7.0,98,0.09,,,0.12,58.000000,,2013-08-05 15:14:00,
2013-08-05 10:24:00,55.0,54.0,-100.00,WSW,248,2.0,7.0,98,0.09,,,0.12,58.000000,,2013-08-05 15:24:00,
2013-08-05 11:09:00,55.0,54.0,-100.00,South,190,2.0,6.0,98,0.26,,,0.38,35.000000,,2013-08-05 16:09:00,
2013-08-05 11:17:00,55.0,54.0,-100.00,South,190,2.0,6.0,98,0.26,,,0.38,35.000000,,2013-08-05 16:17:00,
2013-08-05 11:25:00,55.0,54.0,-100.00,South,190,2.0,6.0,98,0.26,,,0.38,35.000000,,2013-08-05 16:25:00,
2013-08-05 11:33:00,55.0,54.0,-100.00,South,190,2.0,6.0,98,0.26,,,0.38,35.000000,,2013-08-05 16:33:00,
2013-08-05 12:06:00,59.0,58.0,-100.00,SSW,197,3.0,8.0,95,0.06,,,0.44,193.000000,,2013-08-05 17:06:00,
2013-08-05 12:17:00,59.0,58.0,-100.00,SSW,197,3.0,8.0,95,0.06,,,0.44,193.000000,,2013-08-05 17:17:00,
2013-08-05 12:22:00,59.0,58.0,-100.00,SSW,197,3.0,8.0,95,0.06,,,0.44,193.000000,,2013-08-05 17:22:00,
2013-08-05 12:36:00,59.0,58.0,-100.00,SSW,197,3.0,8.0,95,0.06,,,0.44,193.000000,,2013-08-05 17:36:00,
2013-08-05 12:37:00,60.0,58.0,-100.00,SSW,196,3.0,7.0,93,0.00,,,0.44,223.000000,,2013-08-05 17:37:00,
2013-08-05 13:08:00,60.0,58.0,-100.00,SSW,196,3.0,7.0,93,0.00,,,0.44,223.000000,,2013-08-05 18:08:00,
2013-08-05 13:13:00,60.0,58.0,-100.00,SSW,196,3.0,7.0,93,0.00,,,0.44,223.000000,,2013-08-05 18:13:00,
2013-08-05 13:26:00,60.0,58.0,-100.00,SSW,196,3.0,7.0,93,0.00,,,0.44,223.000000,,2013-08-05 18:26:00,
2013-08-05 13:37:00,61.0,58.0,-100.00,SW,219,4.0,10.0,91,0.00,,,0.44,326.000000,,2013-08-05 18:37:00,
2013-08-05 14:05:00,61.0,58.0,-100.00,SW,219,4.0,10.0,91,0.00,,,0.44,326.000000,,2013-08-05 19:05:00,
2013-08-05 14:14:00,61.0,58.0,-100.00,SW,219,4.0,10.0,91,0.00,,,0.44,326.000000,,2013-08-05 19:14:00,
2013-08-05 14:26:00,61.0,58.0,-100.00,SW,219,4.0,10.0,91,0.00,,,0.44,326.000000,,2013-08-05 19:26:00,
2013-08-05 14:37:00,61.0,60.0,-100.00,SW,222,4.0,7.0,95,0.01,,,0.45,149.000000,,2013-08-05 19:37:00,
2013-08-05 15:09:00,61.0,60.0,-100.00,SW,222,4.0,7.0,95,0.01,,,0.45,149.000000,,2013-08-05 20:09:00,
2013-08-05 15:15:00,61.0,60.0,-100.00,SW,222,4.0,7.0,95,0.01,,,0.45,149.000000,,2013-08-05 20:15:00,
2013-08-05 15:27:00,61.0,60.0,-100.00,SW,222,4.0,7.0,95,0.01,,,0.45,149.000000,,2013-08-05 20:27:00,
2013-08-05 16:07:00,63.0,61.0,-100.00,SSW,198,4.0,8.0,94,0.03,,,0.48,184.000000,,2013-08-05 21:07:00,
2013-08-05 16:18:00,63.0,61.0,-100.00,SSW,198,4.0,8.0,94,0.03,,,0.48,184.000000,,2013-08-05 21:18:00,
2013-08-05 16:26:00,63.0,61.0,-100.00,SSW,198,4.0,8.0,94,0.03,,,0.48,184.000000,,2013-08-05 21:26:00,
2013-08-05 16:33:00,63.0,61.0,-100.00,SSW,198,4.0,8.0,94,0.03,,,0.48,184.000000,,2013-08-05 21:33:00,
2013-08-05 16:37:00,63.0,61.0,-100.00,SW,215,3.0,8.0,94,0.00,,,0.48,153.000000,,2013-08-05 21:37:00,
2013-08-05 17:05:00,63.0,61.0,-100.00,SW,215,3.0,8.0,94,0.00,,,0.48,153.000000,,2013-08-05 22:05:00,
2013-08-05 17:14:00,63.0,61.0,-100.00,SW,215,3.0,8.0,94,0.00,,,0.48,153.000000,,2013-08-05 22:14:00,
2013-08-05 17:26:00,63.0,61.0,-100.00,SW,215,3.0,8.0,94,0.00,,,0.48,153.000000,,2013-08-05 22:26:00,
2013-08-05 18:07:00,64.0,63.0,-100.00,WSW,237,1.0,5.0,95,0.00,,,0.48,103.000000,,2013-08-05 23:07:00,
2013-08-05 18:16:00,64.0,63.0,-100.00,WSW,237,1.0,5.0,95,0.00,,,0.48,103.000000,,2013-08-05 23:16:00,
2013-08-05 18:26:00,64.0,63.0,-100.00,WSW,237,1.0,5.0,95,0.00,,,0.48,103.000000,,2013-08-05 23:26:00,
2013-08-05 18:33:00,64.0,63.0,-100.00,WSW,237,1.0,5.0,95,0.00,,,0.48,103.000000,,2013-08-05 23:33:00,
2013-08-05 19:02:00,64.0,63.0,-100.00,WSW,256,0.0,4.0,95,0.00,,,0.48,77.000000,,2013-08-06 00:02:00,
2013-08-05 19:15:00,64.0,63.0,-100.00,WSW,256,0.0,4.0,95,0.00,,,0.48,77.000000,,2013-08-06 00:15:00,
2013-08-05 19:24:00,64.0,63.0,-100.00,WSW,256,0.0,4.0,95,0.00,,,0.48,77.000000,,2013-08-06 00:24:00,
2013-08-05 19:36:00,64.0,63.0,-100.00,WSW,256,0.0,4.0,95,0.00,,,0.48,77.000000,,2013-08-06 00:36:00,
2013-08-05 19:37:00,64.0,63.0,-100.00,South,188,0.0,3.0,97,0.00,,,0.48,44.000000,,2013-08-06 00:37:00,
2013-08-05 20:08:00,64.0,63.0,-100.00,South,188,0.0,3.0,97,0.00,,,0.48,44.000000,,2013-08-06 01:08:00,
2013-08-05 20:14:00,64.0,63.0,-100.00,South,188,0.0,3.0,97,0.00,,,0.48,44.000000,,2013-08-06 01:14:00,
2013-08-05 20:27:00,64.0,63.0,-100.00,South,188,0.0,3.0,97,0.00,,,0.48,44.000000,,2013-08-06 01:27:00,
2013-08-05 21:15:00,62.0,62.0,-100.00,SSW,205,0.0,2.0,99,0.00,,,0.48,16.000000,,2013-08-06 02:15:00,
2013-08-05 21:32:00,62.0,62.0,-100.00,SSW,205,0.0,2.0,99,0.00,,,0.48,16.000000,,2013-08-06 02:32:00,
2013-08-05 22:01:00,61.0,61.0,-100.00,South,180,0.0,2.0,100,0.00,,,0.48,0.000000,,2013-08-06 03:01:00,
2013-08-05 22:16:00,61.0,61.0,-100.00,South,180,0.0,2.0,100,0.00,,,0.48,0.000000,,2013-08-06 03:16:00,
2013-08-05 22:26:00,61.0,61.0,-100.00,South,180,0.0,2.0,100,0.00,,,0.48,0.000000,,2013-08-06 03:26:00,
2013-08-05 22:35:00,61.0,61.0,-100.00,South,180,0.0,2.0,100,0.00,,,0.48,0.000000,,2013-08-06 03:35:00,
2013-08-05 23:01:00,60.0,60.0,-100.00,SSW,204,0.0,2.0,100,0.00,,,0.48,0.000000,,2013-08-06 04:01:00,
2013-08-05 23:11:00,60.0,60.0,-100.00,SSW,204,0.0,2.0,100,0.00,,,0.48,0.000000,,2013-08-06 04:11:00,
2013-08-05 23:22:00,60.0,60.0,-100.00,SSW,204,0.0,2.0,100,0.00,,,0.48,0.000000,,2013-08-06 04:22:00,
2013-08-05 23:33:00,60.0,60.0,-100.00,SSW,204,0.0,2.0,100,0.00,,,0.48,0.000000,,2013-08-06 04:33:00,